Terminal Aerodrome Forecast
Issued by NWS Cleveland, OH

Home | Current Version | Previous Version | Graphics & Text | Print | Product List | Glossary On
Versions: 1 2 3 4 5 6 7 8 9 10 11 12 13 14 15 16
613
FTUS41 KCLE 210539
TAFMFD
TAF
KMFD 210539Z 2106/2206 22012KT P6SM VCSH SCT020 OVC035
      TEMPO 2108/2112 BKN020
     FM211600 27012G20KT P6SM SCT025 OVC035
     FM212300 27010KT P6SM BKN025 OVC040=

USA.gov is the U.S. government's official web portal to all federal, state and local government web resources and services.